sensor_id;sensor_type;location;lat;lon;timestamp;P1;durP1;ratioP1;P2;durP2;ratioP2
46116;SDS011;32591;48.102;11.772;2022-07-29T00:00:47;1.75;;;1.05;;
46116;SDS011;32591;48.102;11.772;2022-07-29T00:03:14;1.55;;;0.85;;
46116;SDS011;32591;48.102;11.772;2022-07-29T00:05:41;1.02;;;0.90;;
46116;SDS011;32591;48.102;11.772;2022-07-29T00:08:08;2.05;;;1.20;;
46116;SDS011;32591;48.102;11.772;2022-07-29T00:10:35;4.03;;;0.88;;
46116;SDS011;32591;48.102;11.772;2022-07-29T00:13:04;2.63;;;1.17;;
46116;SDS011;32591;48.102;11.772;2022-07-29T00:15:31;1.00;;;0.80;;
46116;SDS011;32591;48.102;11.772;2022-07-29T00:17:57;1.77;;;0.93;;
46116;SDS011;32591;48.102;11.772;2022-07-29T00:20:24;2.42;;;1.10;;
46116;SDS011;32591;48.102;11.772;2022-07-29T00:22:51;1.73;;;0.93;;
46116;SDS011;32591;48.102;11.772;2022-07-29T00:25:18;1.63;;;1.00;;
46116;SDS011;32591;48.102;11.772;2022-07-29T00:27:45;1.17;;;0.80;;
46116;SDS011;32591;48.102;11.772;2022-07-29T00:30:14;1.05;;;0.90;;
46116;SDS011;32591;48.102;11.772;2022-07-29T00:32:41;2.70;;;1.30;;
46116;SDS011;32591;48.102;11.772;2022-07-29T00:35:08;1.88;;;1.00;;
46116;SDS011;32591;48.102;11.772;2022-07-29T00:37:53;1.25;;;0.85;;
46116;SDS011;32591;48.102;11.772;2022-07-29T00:40:20;1.95;;;0.88;;
46116;SDS011;32591;48.102;11.772;2022-07-29T00:42:48;1.42;;;1.13;;
46116;SDS011;32591;48.102;11.772;2022-07-29T00:45:18;2.08;;;1.10;;
46116;SDS011;32591;48.102;11.772;2022-07-29T00:47:47;1.67;;;1.00;;
46116;SDS011;32591;48.102;11.772;2022-07-29T00:50:14;0.93;;;0.80;;
46116;SDS011;32591;48.102;11.772;2022-07-29T00:52:42;3.03;;;1.05;;
46116;SDS011;32591;48.102;11.772;2022-07-29T00:55:10;1.40;;;0.95;;
46116;SDS011;32591;48.102;11.772;2022-07-29T00:57:38;2.08;;;1.13;;
46116;SDS011;32591;48.102;11.772;2022-07-29T01:00:08;1.90;;;1.10;;
46116;SDS011;32591;48.102;11.772;2022-07-29T01:02:39;2.42;;;1.05;;
46116;SDS011;32591;48.102;11.772;2022-07-29T01:05:06;0.90;;;0.68;;
46116;SDS011;32591;48.102;11.772;2022-07-29T01:07:34;1.90;;;1.23;;
46116;SDS011;32591;48.102;11.772;2022-07-29T01:10:03;1.35;;;0.93;;
46116;SDS011;32591;48.102;11.772;2022-07-29T01:12:33;1.10;;;1.00;;
46116;SDS011;32591;48.102;11.772;2022-07-29T01:15:03;3.25;;;0.95;;
46116;SDS011;32591;48.102;11.772;2022-07-29T01:17:33;1.77;;;1.20;;
46116;SDS011;32591;48.102;11.772;2022-07-29T01:20:09;2.08;;;1.20;;
46116;SDS011;32591;48.102;11.772;2022-07-29T01:22:53;1.58;;;0.90;;
46116;SDS011;32591;48.102;11.772;2022-07-29T01:25:44;2.20;;;1.42;;
46116;SDS011;32591;48.102;11.772;2022-07-29T01:28:34;1.10;;;1.00;;
46116;SDS011;32591;48.102;11.772;2022-07-29T01:31:28;2.95;;;1.23;;
46116;SDS011;32591;48.102;11.772;2022-07-29T01:34:05;1.17;;;1.02;;
46116;SDS011;32591;48.102;11.772;2022-07-29T01:36:36;1.05;;;0.90;;
46116;SDS011;32591;48.102;11.772;2022-07-29T01:39:11;2.60;;;1.00;;
46116;SDS011;32591;48.102;11.772;2022-07-29T01:41:44;1.58;;;0.82;;
46116;SDS011;32591;48.102;11.772;2022-07-29T01:44:22;1.80;;;1.02;;
46116;SDS011;32591;48.102;11.772;2022-07-29T01:46:58;1.23;;;0.98;;
46116;SDS011;32591;48.102;11.772;2022-07-29T01:49:36;1.30;;;1.00;;
46116;SDS011;32591;48.102;11.772;2022-07-29T01:52:13;1.40;;;1.10;;
46116;SDS011;32591;48.102;11.772;2022-07-29T01:54:49;1.48;;;1.10;;
46116;SDS011;32591;48.102;11.772;2022-07-29T01:57:21;1.23;;;0.93;;
46116;SDS011;32591;48.102;11.772;2022-07-29T01:59:54;2.00;;;1.08;;
46116;SDS011;32591;48.102;11.772;2022-07-29T02:02:23;1.60;;;1.15;;
46116;SDS011;32591;48.102;11.772;2022-07-29T02:04:52;2.90;;;1.17;;
46116;SDS011;32591;48.102;11.772;2022-07-29T02:07:21;2.40;;;1.15;;
46116;SDS011;32591;48.102;11.772;2022-07-29T02:09:49;2.50;;;1.10;;
46116;SDS011;32591;48.102;11.772;2022-07-29T02:12:18;1.52;;;1.10;;
46116;SDS011;32591;48.102;11.772;2022-07-29T02:14:48;1.20;;;0.93;;
46116;SDS011;32591;48.102;11.772;2022-07-29T02:17:20;1.35;;;1.10;;
46116;SDS011;32591;48.102;11.772;2022-07-29T02:19:51;1.67;;;1.08;;
46116;SDS011;32591;48.102;11.772;2022-07-29T02:22:23;1.92;;;1.45;;
46116;SDS011;32591;48.102;11.772;2022-07-29T02:24:51;1.75;;;1.23;;
46116;SDS011;32591;48.102;11.772;2022-07-29T02:27:20;1.38;;;0.90;;
46116;SDS011;32591;48.102;11.772;2022-07-29T02:29:48;1.35;;;1.08;;
46116;SDS011;32591;48.102;11.772;2022-07-29T02:32:17;2.05;;;1.30;;
46116;SDS011;32591;48.102;11.772;2022-07-29T02:34:48;1.10;;;1.00;;
46116;SDS011;32591;48.102;11.772;2022-07-29T02:37:16;2.00;;;1.30;;
46116;SDS011;32591;48.102;11.772;2022-07-29T02:39:45;1.45;;;1.00;;
46116;SDS011;32591;48.102;11.772;2022-07-29T02:42:15;1.40;;;1.00;;
46116;SDS011;32591;48.102;11.772;2022-07-29T02:44:43;1.83;;;1.30;;
46116;SDS011;32591;48.102;11.772;2022-07-29T02:47:13;1.50;;;1.00;;
46116;SDS011;32591;48.102;11.772;2022-07-29T02:49:49;1.63;;;1.08;;
46116;SDS011;32591;48.102;11.772;2022-07-29T02:52:23;1.73;;;1.42;;
46116;SDS011;32591;48.102;11.772;2022-07-29T02:54:54;1.67;;;1.00;;
46116;SDS011;32591;48.102;11.772;2022-07-29T02:57:28;1.65;;;1.05;;
46116;SDS011;32591;48.102;11.772;2022-07-29T03:00:01;1.52;;;1.17;;
46116;SDS011;32591;48.102;11.772;2022-07-29T03:02:33;2.35;;;1.05;;
46116;SDS011;32591;48.102;11.772;2022-07-29T03:05:04;1.50;;;1.00;;
46116;SDS011;32591;48.102;11.772;2022-07-29T03:07:35;1.48;;;1.30;;
46116;SDS011;32591;48.102;11.772;2022-07-29T03:10:05;4.03;;;1.30;;
46116;SDS011;32591;48.102;11.772;2022-07-29T03:12:34;1.80;;;1.27;;
46116;SDS011;32591;48.102;11.772;2022-07-29T03:15:02;2.30;;;1.30;;
46116;SDS011;32591;48.102;11.772;2022-07-29T03:17:30;3.42;;;1.27;;
46116;SDS011;32591;48.102;11.772;2022-07-29T03:19:57;2.55;;;1.10;;
46116;SDS011;32591;48.102;11.772;2022-07-29T03:22:26;2.17;;;1.33;;
46116;SDS011;32591;48.102;11.772;2022-07-29T03:24:54;2.70;;;1.40;;
46116;SDS011;32591;48.102;11.772;2022-07-29T03:27:21;2.83;;;1.40;;
46116;SDS011;32591;48.102;11.772;2022-07-29T03:29:48;1.90;;;1.50;;
46116;SDS011;32591;48.102;11.772;2022-07-29T03:32:15;1.75;;;1.30;;
46116;SDS011;32591;48.102;11.772;2022-07-29T03:34:42;1.42;;;1.25;;
46116;SDS011;32591;48.102;11.772;2022-07-29T03:37:08;2.30;;;1.38;;
46116;SDS011;32591;48.102;11.772;2022-07-29T03:39:38;2.35;;;1.40;;
46116;SDS011;32591;48.102;11.772;2022-07-29T03:42:08;2.42;;;1.50;;
46116;SDS011;32591;48.102;11.772;2022-07-29T03:44:38;2.38;;;1.40;;
46116;SDS011;32591;48.102;11.772;2022-07-29T03:47:08;2.72;;;1.90;;
46116;SDS011;32591;48.102;11.772;2022-07-29T03:49:37;1.95;;;1.42;;
46116;SDS011;32591;48.102;11.772;2022-07-29T03:52:05;2.50;;;1.27;;
46116;SDS011;32591;48.102;11.772;2022-07-29T03:54:32;1.75;;;1.30;;
46116;SDS011;32591;48.102;11.772;2022-07-29T03:57:01;1.65;;;1.25;;
46116;SDS011;32591;48.102;11.772;2022-07-29T03:59:30;2.10;;;1.38;;
46116;SDS011;32591;48.102;11.772;2022-07-29T04:02:00;2.25;;;1.60;;
46116;SDS011;32591;48.102;11.772;2022-07-29T04:04:28;2.22;;;1.52;;
46116;SDS011;32591;48.102;11.772;2022-07-29T04:06:58;1.73;;;1.38;;
46116;SDS011;32591;48.102;11.772;2022-07-29T04:09:25;2.33;;;1.70;;
46116;SDS011;32591;48.102;11.772;2022-07-29T04:11:52;2.38;;;1.58;;
46116;SDS011;32591;48.102;11.772;2022-07-29T04:14:21;2.92;;;1.63;;
46116;SDS011;32591;48.102;11.772;2022-07-29T04:16:48;3.45;;;1.40;;
46116;SDS011;32591;48.102;11.772;2022-07-29T04:19:14;2.28;;;1.73;;
46116;SDS011;32591;48.102;11.772;2022-07-29T04:21:41;1.83;;;1.42;;
46116;SDS011;32591;48.102;11.772;2022-07-29T04:24:10;3.85;;;1.60;;
46116;SDS011;32591;48.102;11.772;2022-07-29T04:26:37;2.15;;;1.65;;
46116;SDS011;32591;48.102;11.772;2022-07-29T04:29:03;2.95;;;1.77;;
46116;SDS011;32591;48.102;11.772;2022-07-29T04:31:32;2.13;;;1.85;;
46116;SDS011;32591;48.102;11.772;2022-07-29T04:33:59;4.97;;;1.95;;
46116;SDS011;32591;48.102;11.772;2022-07-29T04:36:25;3.55;;;1.65;;
46116;SDS011;32591;48.102;11.772;2022-07-29T04:38:52;3.92;;;2.03;;
46116;SDS011;32591;48.102;11.772;2022-07-29T04:41:19;2.40;;;1.55;;
46116;SDS011;32591;48.102;11.772;2022-07-29T04:43:46;2.35;;;1.42;;
46116;SDS011;32591;48.102;11.772;2022-07-29T04:46:13;2.45;;;1.83;;
46116;SDS011;32591;48.102;11.772;2022-07-29T04:48:42;3.00;;;1.90;;
46116;SDS011;32591;48.102;11.772;2022-07-29T04:51:11;2.85;;;2.03;;
46116;SDS011;32591;48.102;11.772;2022-07-29T04:53:38;3.72;;;2.15;;
46116;SDS011;32591;48.102;11.772;2022-07-29T04:56:05;2.72;;;1.67;;
46116;SDS011;32591;48.102;11.772;2022-07-29T04:58:33;2.85;;;1.55;;
46116;SDS011;32591;48.102;11.772;2022-07-29T05:01:01;3.08;;;2.03;;
46116;SDS011;32591;48.102;11.772;2022-07-29T05:03:28;2.70;;;2.03;;
46116;SDS011;32591;48.102;11.772;2022-07-29T05:05:57;4.70;;;2.10;;
46116;SDS011;32591;48.102;11.772;2022-07-29T05:08:24;2.28;;;1.80;;
46116;SDS011;32591;48.102;11.772;2022-07-29T05:10:50;2.53;;;1.80;;
46116;SDS011;32591;48.102;11.772;2022-07-29T05:13:17;3.78;;;2.08;;
46116;SDS011;32591;48.102;11.772;2022-07-29T05:15:44;3.65;;;1.95;;
46116;SDS011;32591;48.102;11.772;2022-07-29T05:18:11;5.68;;;1.77;;
46116;SDS011;32591;48.102;11.772;2022-07-29T05:20:39;3.25;;;1.80;;
46116;SDS011;32591;48.102;11.772;2022-07-29T05:23:07;2.92;;;2.05;;
46116;SDS011;32591;48.102;11.772;2022-07-29T05:25:34;3.58;;;2.08;;
46116;SDS011;32591;48.102;11.772;2022-07-29T05:28:01;2.40;;;1.60;;
46116;SDS011;32591;48.102;11.772;2022-07-29T05:30:28;1.95;;;1.50;;
46116;SDS011;32591;48.102;11.772;2022-07-29T05:32:55;2.83;;;1.92;;
46116;SDS011;32591;48.102;11.772;2022-07-29T05:35:22;3.05;;;1.63;;
46116;SDS011;32591;48.102;11.772;2022-07-29T05:37:49;2.25;;;2.05;;
46116;SDS011;32591;48.102;11.772;2022-07-29T05:40:18;3.42;;;1.60;;
46116;SDS011;32591;48.102;11.772;2022-07-29T05:42:45;2.30;;;1.77;;
46116;SDS011;32591;48.102;11.772;2022-07-29T05:45:12;2.78;;;1.60;;
46116;SDS011;32591;48.102;11.772;2022-07-29T05:47:39;2.72;;;1.80;;
46116;SDS011;32591;48.102;11.772;2022-07-29T05:50:06;1.75;;;1.55;;
46116;SDS011;32591;48.102;11.772;2022-07-29T05:52:34;3.03;;;2.05;;
46116;SDS011;32591;48.102;11.772;2022-07-29T05:55:01;3.55;;;1.52;;
46116;SDS011;32591;48.102;11.772;2022-07-29T05:57:32;2.15;;;1.50;;
46116;SDS011;32591;48.102;11.772;2022-07-29T05:59:59;2.33;;;1.75;;
46116;SDS011;32591;48.102;11.772;2022-07-29T06:02:26;2.10;;;1.60;;
46116;SDS011;32591;48.102;11.772;2022-07-29T06:04:53;3.35;;;2.33;;
46116;SDS011;32591;48.102;11.772;2022-07-29T06:07:20;3.08;;;2.00;;
46116;SDS011;32591;48.102;11.772;2022-07-29T06:09:47;2.85;;;1.92;;
46116;SDS011;32591;48.102;11.772;2022-07-29T06:12:18;3.22;;;1.80;;
46116;SDS011;32591;48.102;11.772;2022-07-29T06:14:47;3.33;;;1.88;;
46116;SDS011;32591;48.102;11.772;2022-07-29T06:17:15;1.92;;;1.50;;
46116;SDS011;32591;48.102;11.772;2022-07-29T06:19:42;2.22;;;1.85;;
46116;SDS011;32591;48.102;11.772;2022-07-29T06:22:09;2.10;;;1.60;;
46116;SDS011;32591;48.102;11.772;2022-07-29T06:24:36;2.83;;;1.77;;
46116;SDS011;32591;48.102;11.772;2022-07-29T06:27:06;2.38;;;2.00;;
46116;SDS011;32591;48.102;11.772;2022-07-29T06:29:34;1.85;;;1.55;;
46116;SDS011;32591;48.102;11.772;2022-07-29T06:32:03;2.25;;;1.90;;
46116;SDS011;32591;48.102;11.772;2022-07-29T06:34:31;2.50;;;1.90;;
46116;SDS011;32591;48.102;11.772;2022-07-29T06:36:58;2.70;;;2.05;;
46116;SDS011;32591;48.102;11.772;2022-07-29T06:39:25;2.45;;;1.98;;
46116;SDS011;32591;48.102;11.772;2022-07-29T06:41:52;2.75;;;1.83;;
46116;SDS011;32591;48.102;11.772;2022-07-29T06:44:19;2.92;;;1.73;;
46116;SDS011;32591;48.102;11.772;2022-07-29T06:46:46;2.25;;;1.73;;
46116;SDS011;32591;48.102;11.772;2022-07-29T06:49:16;4.72;;;1.80;;
46116;SDS011;32591;48.102;11.772;2022-07-29T06:51:43;1.90;;;1.67;;
46116;SDS011;32591;48.102;11.772;2022-07-29T06:54:10;2.03;;;1.70;;
46116;SDS011;32591;48.102;11.772;2022-07-29T06:56:37;2.55;;;1.60;;
46116;SDS011;32591;48.102;11.772;2022-07-29T06:59:07;2.42;;;1.85;;
46116;SDS011;32591;48.102;11.772;2022-07-29T07:01:35;2.05;;;1.60;;
46116;SDS011;32591;48.102;11.772;2022-07-29T07:04:03;2.55;;;1.80;;
46116;SDS011;32591;48.102;11.772;2022-07-29T07:06:31;3.22;;;1.67;;
46116;SDS011;32591;48.102;11.772;2022-07-29T07:08:58;2.17;;;1.58;;
46116;SDS011;32591;48.102;11.772;2022-07-29T07:11:26;2.45;;;1.63;;
46116;SDS011;32591;48.102;11.772;2022-07-29T07:13:53;2.60;;;1.80;;
46116;SDS011;32591;48.102;11.772;2022-07-29T07:16:20;3.25;;;1.70;;
46116;SDS011;32591;48.102;11.772;2022-07-29T07:18:47;1.98;;;1.50;;
46116;SDS011;32591;48.102;11.772;2022-07-29T07:21:14;3.05;;;1.55;;
46116;SDS011;32591;48.102;11.772;2022-07-29T07:23:43;2.25;;;1.75;;
46116;SDS011;32591;48.102;11.772;2022-07-29T07:26:09;2.20;;;1.70;;
46116;SDS011;32591;48.102;11.772;2022-07-29T07:28:36;2.80;;;1.67;;
46116;SDS011;32591;48.102;11.772;2022-07-29T07:31:03;2.22;;;1.67;;
46116;SDS011;32591;48.102;11.772;2022-07-29T07:33:31;2.05;;;1.60;;
46116;SDS011;32591;48.102;11.772;2022-07-29T07:35:58;2.90;;;1.73;;
46116;SDS011;32591;48.102;11.772;2022-07-29T07:38:25;2.28;;;1.60;;
46116;SDS011;32591;48.102;11.772;2022-07-29T07:40:53;2.65;;;2.00;;
46116;SDS011;32591;48.102;11.772;2022-07-29T07:43:20;4.22;;;2.38;;
46116;SDS011;32591;48.102;11.772;2022-07-29T07:45:47;1.98;;;1.60;;
46116;SDS011;32591;48.102;11.772;2022-07-29T07:48:14;6.45;;;1.60;;
46116;SDS011;32591;48.102;11.772;2022-07-29T07:50:41;1.58;;;1.33;;
46116;SDS011;32591;48.102;11.772;2022-07-29T07:53:08;2.63;;;1.50;;
46116;SDS011;32591;48.102;11.772;2022-07-29T07:55:39;2.13;;;1.50;;
46116;SDS011;32591;48.102;11.772;2022-07-29T07:58:08;4.15;;;1.50;;
46116;SDS011;32591;48.102;11.772;2022-07-29T08:00:35;2.65;;;1.52;;
46116;SDS011;32591;48.102;11.772;2022-07-29T08:03:02;3.63;;;1.92;;
46116;SDS011;32591;48.102;11.772;2022-07-29T08:05:29;4.53;;;1.52;;
46116;SDS011;32591;48.102;11.772;2022-07-29T08:07:57;2.13;;;1.60;;
46116;SDS011;32591;48.102;11.772;2022-07-29T08:10:24;1.58;;;1.40;;
46116;SDS011;32591;48.102;11.772;2022-07-29T08:13:10;3.15;;;1.50;;
46116;SDS011;32591;48.102;11.772;2022-07-29T08:15:38;3.63;;;1.75;;
46116;SDS011;32591;48.102;11.772;2022-07-29T08:18:06;2.28;;;1.30;;
46116;SDS011;32591;48.102;11.772;2022-07-29T08:20:33;2.72;;;1.50;;
46116;SDS011;32591;48.102;11.772;2022-07-29T08:23:01;2.85;;;1.25;;
46116;SDS011;32591;48.102;11.772;2022-07-29T08:25:29;6.10;;;1.88;;
46116;SDS011;32591;48.102;11.772;2022-07-29T08:27:56;3.28;;;1.65;;
46116;SDS011;32591;48.102;11.772;2022-07-29T08:30:24;1.58;;;1.30;;
46116;SDS011;32591;48.102;11.772;2022-07-29T08:32:51;3.13;;;1.63;;
46116;SDS011;32591;48.102;11.772;2022-07-29T08:35:19;2.58;;;1.40;;
46116;SDS011;32591;48.102;11.772;2022-07-29T08:37:46;2.50;;;1.70;;
46116;SDS011;32591;48.102;11.772;2022-07-29T08:40:13;2.40;;;1.80;;
46116;SDS011;32591;48.102;11.772;2022-07-29T08:42:40;3.30;;;1.50;;
46116;SDS011;32591;48.102;11.772;2022-07-29T08:45:08;2.13;;;1.48;;
46116;SDS011;32591;48.102;11.772;2022-07-29T08:47:37;3.45;;;1.60;;
46116;SDS011;32591;48.102;11.772;2022-07-29T08:50:05;2.25;;;1.60;;
46116;SDS011;32591;48.102;11.772;2022-07-29T08:52:35;2.53;;;1.60;;
46116;SDS011;32591;48.102;11.772;2022-07-29T08:55:05;3.10;;;1.95;;
46116;SDS011;32591;48.102;11.772;2022-07-29T08:57:34;3.65;;;1.73;;
46116;SDS011;32591;48.102;11.772;2022-07-29T09:00:03;4.70;;;1.77;;
46116;SDS011;32591;48.102;11.772;2022-07-29T09:02:35;3.60;;;2.00;;
46116;SDS011;32591;48.102;11.772;2022-07-29T09:05:08;1.95;;;1.50;;
46116;SDS011;32591;48.102;11.772;2022-07-29T09:07:35;2.30;;;2.00;;
46116;SDS011;32591;48.102;11.772;2022-07-29T09:10:03;2.80;;;1.65;;
46116;SDS011;32591;48.102;11.772;2022-07-29T09:12:32;3.97;;;1.90;;
46116;SDS011;32591;48.102;11.772;2022-07-29T09:14:59;3.25;;;1.90;;
46116;SDS011;32591;48.102;11.772;2022-07-29T09:17:40;2.55;;;1.63;;
46116;SDS011;32591;48.102;11.772;2022-07-29T09:20:09;2.50;;;2.03;;
46116;SDS011;32591;48.102;11.772;2022-07-29T09:22:38;2.22;;;2.03;;
46116;SDS011;32591;48.102;11.772;2022-07-29T09:25:06;2.78;;;1.88;;
46116;SDS011;32591;48.102;11.772;2022-07-29T09:27:33;1.92;;;1.60;;
46116;SDS011;32591;48.102;11.772;2022-07-29T09:30:02;3.40;;;2.20;;
46116;SDS011;32591;48.102;11.772;2022-07-29T09:32:32;1.95;;;1.73;;
46116;SDS011;32591;48.102;11.772;2022-07-29T09:35:17;2.83;;;1.73;;
46116;SDS011;32591;48.102;11.772;2022-07-29T09:37:46;3.55;;;2.35;;
46116;SDS011;32591;48.102;11.772;2022-07-29T09:40:15;2.97;;;2.33;;
46116;SDS011;32591;48.102;11.772;2022-07-29T09:42:45;3.20;;;2.28;;
46116;SDS011;32591;48.102;11.772;2022-07-29T09:45:13;6.18;;;2.42;;
46116;SDS011;32591;48.102;11.772;2022-07-29T09:47:54;3.70;;;2.17;;
46116;SDS011;32591;48.102;11.772;2022-07-29T09:50:35;4.35;;;2.33;;
46116;SDS011;32591;48.102;11.772;2022-07-29T09:53:03;5.68;;;2.80;;
46116;SDS011;32591;48.102;11.772;2022-07-29T09:55:31;3.85;;;2.58;;
46116;SDS011;32591;48.102;11.772;2022-07-29T10:00:43;3.00;;;2.00;;
46116;SDS011;32591;48.102;11.772;2022-07-29T10:03:12;2.33;;;2.08;;
46116;SDS011;32591;48.102;11.772;2022-07-29T10:05:42;2.20;;;1.92;;
46116;SDS011;32591;48.102;11.772;2022-07-29T10:08:10;8.13;;;2.63;;
46116;SDS011;32591;48.102;11.772;2022-07-29T10:10:39;2.00;;;1.80;;
46116;SDS011;32591;48.102;11.772;2022-07-29T10:13:09;2.50;;;2.20;;
46116;SDS011;32591;48.102;11.772;2022-07-29T10:15:38;3.88;;;2.40;;
46116;SDS011;32591;48.102;11.772;2022-07-29T10:18:09;3.55;;;2.08;;
46116;SDS011;32591;48.102;11.772;2022-07-29T10:20:37;3.55;;;2.60;;
46116;SDS011;32591;48.102;11.772;2022-07-29T10:23:06;5.50;;;2.50;;
46116;SDS011;32591;48.102;11.772;2022-07-29T10:25:34;3.75;;;2.25;;
46116;SDS011;32591;48.102;11.772;2022-07-29T10:28:02;2.10;;;1.90;;
46116;SDS011;32591;48.102;11.772;2022-07-29T10:30:29;5.68;;;2.28;;
46116;SDS011;32591;48.102;11.772;2022-07-29T10:33:02;3.92;;;2.10;;
46116;SDS011;32591;48.102;11.772;2022-07-29T10:36:02;4.80;;;2.63;;
46116;SDS011;32591;48.102;11.772;2022-07-29T10:38:43;4.82;;;2.40;;
46116;SDS011;32591;48.102;11.772;2022-07-29T10:41:29;2.35;;;1.90;;
46116;SDS011;32591;48.102;11.772;2022-07-29T10:44:14;3.28;;;2.40;;
46116;SDS011;32591;48.102;11.772;2022-07-29T10:46:44;4.00;;;2.63;;
46116;SDS011;32591;48.102;11.772;2022-07-29T10:49:12;3.70;;;2.30;;
46116;SDS011;32591;48.102;11.772;2022-07-29T10:54:47;4.22;;;1.88;;
46116;SDS011;32591;48.102;11.772;2022-07-29T10:57:20;4.78;;;2.42;;
46116;SDS011;32591;48.102;11.772;2022-07-29T11:02:58;4.05;;;2.35;;
46116;SDS011;32591;48.102;11.772;2022-07-29T11:05:26;3.72;;;2.38;;
46116;SDS011;32591;48.102;11.772;2022-07-29T11:10:52;5.32;;;2.75;;
46116;SDS011;32591;48.102;11.772;2022-07-29T11:14:03;3.88;;;2.70;;
46116;SDS011;32591;48.102;11.772;2022-07-29T11:19:30;3.97;;;3.03;;
46116;SDS011;32591;48.102;11.772;2022-07-29T11:21:57;3.25;;;2.22;;
46116;SDS011;32591;48.102;11.772;2022-07-29T11:24:25;4.70;;;2.30;;
46116;SDS011;32591;48.102;11.772;2022-07-29T11:27:13;3.47;;;2.58;;
46116;SDS011;32591;48.102;11.772;2022-07-29T11:29:48;2.70;;;2.28;;
46116;SDS011;32591;48.102;11.772;2022-07-29T11:32:18;3.88;;;2.65;;
46116;SDS011;32591;48.102;11.772;2022-07-29T11:34:47;3.95;;;2.45;;
46116;SDS011;32591;48.102;11.772;2022-07-29T11:37:19;3.58;;;2.28;;
46116;SDS011;32591;48.102;11.772;2022-07-29T11:42:43;4.53;;;2.40;;
46116;SDS011;32591;48.102;11.772;2022-07-29T11:45:21;2.58;;;2.17;;
46116;SDS011;32591;48.102;11.772;2022-07-29T11:47:58;4.82;;;2.80;;
46116;SDS011;32591;48.102;11.772;2022-07-29T11:50:27;5.38;;;2.28;;
46116;SDS011;32591;48.102;11.772;2022-07-29T11:52:57;2.72;;;2.20;;
46116;SDS011;32591;48.102;11.772;2022-07-29T11:55:24;3.70;;;2.10;;
46116;SDS011;32591;48.102;11.772;2022-07-29T11:57:54;2.97;;;2.30;;
46116;SDS011;32591;48.102;11.772;2022-07-29T12:00:28;2.63;;;2.03;;
46116;SDS011;32591;48.102;11.772;2022-07-29T12:02:57;3.25;;;2.72;;
46116;SDS011;32591;48.102;11.772;2022-07-29T12:05:30;3.65;;;2.35;;
46116;SDS011;32591;48.102;11.772;2022-07-29T12:08:12;3.78;;;2.75;;
46116;SDS011;32591;48.102;11.772;2022-07-29T12:10:41;3.05;;;2.17;;
46116;SDS011;32591;48.102;11.772;2022-07-29T12:13:10;3.33;;;2.20;;
46116;SDS011;32591;48.102;11.772;2022-07-29T12:15:38;3.40;;;2.33;;
46116;SDS011;32591;48.102;11.772;2022-07-29T12:18:09;3.33;;;2.40;;
46116;SDS011;32591;48.102;11.772;2022-07-29T12:20:37;3.10;;;2.30;;
46116;SDS011;32591;48.102;11.772;2022-07-29T12:23:05;3.00;;;2.20;;
46116;SDS011;32591;48.102;11.772;2022-07-29T12:25:34;2.92;;;2.30;;
46116;SDS011;32591;48.102;11.772;2022-07-29T12:28:03;4.68;;;2.15;;
46116;SDS011;32591;48.102;11.772;2022-07-29T12:30:37;3.83;;;2.50;;
46116;SDS011;32591;48.102;11.772;2022-07-29T12:33:10;3.65;;;2.53;;
46116;SDS011;32591;48.102;11.772;2022-07-29T12:35:39;4.28;;;2.13;;
46116;SDS011;32591;48.102;11.772;2022-07-29T12:38:09;4.57;;;2.58;;
46116;SDS011;32591;48.102;11.772;2022-07-29T12:40:40;3.60;;;2.22;;
46116;SDS011;32591;48.102;11.772;2022-07-29T12:43:09;2.85;;;2.22;;
46116;SDS011;32591;48.102;11.772;2022-07-29T12:45:41;6.32;;;2.40;;
46116;SDS011;32591;48.102;11.772;2022-07-29T12:48:10;4.82;;;2.63;;
46116;SDS011;32591;48.102;11.772;2022-07-29T12:50:51;2.60;;;2.30;;
46116;SDS011;32591;48.102;11.772;2022-07-29T12:53:20;3.40;;;2.15;;
46116;SDS011;32591;48.102;11.772;2022-07-29T12:55:48;3.65;;;2.10;;
46116;SDS011;32591;48.102;11.772;2022-07-29T12:58:31;2.60;;;1.90;;
46116;SDS011;32591;48.102;11.772;2022-07-29T13:01:08;2.72;;;2.17;;
46116;SDS011;32591;48.102;11.772;2022-07-29T13:06:30;3.00;;;2.28;;
46116;SDS011;32591;48.102;11.772;2022-07-29T13:09:07;4.40;;;2.28;;
46116;SDS011;32591;48.102;11.772;2022-07-29T13:11:37;3.22;;;2.72;;
46116;SDS011;32591;48.102;11.772;2022-07-29T13:14:07;2.92;;;2.03;;
46116;SDS011;32591;48.102;11.772;2022-07-29T13:16:38;6.18;;;2.10;;
46116;SDS011;32591;48.102;11.772;2022-07-29T13:19:35;2.85;;;2.08;;
46116;SDS011;32591;48.102;11.772;2022-07-29T13:22:05;3.50;;;2.50;;
46116;SDS011;32591;48.102;11.772;2022-07-29T13:24:32;3.60;;;2.35;;
46116;SDS011;32591;48.102;11.772;2022-07-29T13:27:00;3.75;;;2.30;;
46116;SDS011;32591;48.102;11.772;2022-07-29T13:29:27;3.25;;;2.05;;
46116;SDS011;32591;48.102;11.772;2022-07-29T13:31:55;4.53;;;2.15;;
46116;SDS011;32591;48.102;11.772;2022-07-29T13:34:22;5.70;;;2.05;;
46116;SDS011;32591;48.102;11.772;2022-07-29T13:36:49;2.15;;;1.60;;
46116;SDS011;32591;48.102;11.772;2022-07-29T13:39:16;3.90;;;2.10;;
46116;SDS011;32591;48.102;11.772;2022-07-29T13:41:43;2.42;;;2.08;;
46116;SDS011;32591;48.102;11.772;2022-07-29T13:44:10;2.90;;;2.03;;
46116;SDS011;32591;48.102;11.772;2022-07-29T13:46:37;3.60;;;2.17;;
46116;SDS011;32591;48.102;11.772;2022-07-29T13:49:05;3.67;;;2.63;;
46116;SDS011;32591;48.102;11.772;2022-07-29T13:51:32;2.65;;;2.00;;
46116;SDS011;32591;48.102;11.772;2022-07-29T13:53:59;3.10;;;2.45;;
46116;SDS011;32591;48.102;11.772;2022-07-29T13:56:26;3.90;;;2.55;;
46116;SDS011;32591;48.102;11.772;2022-07-29T13:58:53;3.20;;;2.13;;
46116;SDS011;32591;48.102;11.772;2022-07-29T14:01:20;3.83;;;2.33;;
46116;SDS011;32591;48.102;11.772;2022-07-29T14:03:47;3.97;;;2.55;;
46116;SDS011;32591;48.102;11.772;2022-07-29T14:06:15;6.07;;;2.92;;
46116;SDS011;32591;48.102;11.772;2022-07-29T14:08:42;3.53;;;2.50;;
46116;SDS011;32591;48.102;11.772;2022-07-29T14:11:09;2.80;;;2.50;;
46116;SDS011;32591;48.102;11.772;2022-07-29T14:13:36;4.13;;;2.63;;
46116;SDS011;32591;48.102;11.772;2022-07-29T14:16:03;5.15;;;2.80;;
46116;SDS011;32591;48.102;11.772;2022-07-29T14:18:32;4.20;;;2.50;;
46116;SDS011;32591;48.102;11.772;2022-07-29T14:20:59;2.78;;;2.30;;
46116;SDS011;32591;48.102;11.772;2022-07-29T14:23:27;4.45;;;2.20;;
46116;SDS011;32591;48.102;11.772;2022-07-29T14:25:54;3.40;;;2.55;;
46116;SDS011;32591;48.102;11.772;2022-07-29T14:28:21;4.03;;;2.40;;
46116;SDS011;32591;48.102;11.772;2022-07-29T14:30:48;6.63;;;2.63;;
46116;SDS011;32591;48.102;11.772;2022-07-29T14:33:15;4.10;;;2.30;;
46116;SDS011;32591;48.102;11.772;2022-07-29T14:35:42;3.42;;;2.30;;
46116;SDS011;32591;48.102;11.772;2022-07-29T14:38:10;4.05;;;2.75;;
46116;SDS011;32591;48.102;11.772;2022-07-29T14:40:38;3.60;;;2.65;;
46116;SDS011;32591;48.102;11.772;2022-07-29T14:43:05;3.03;;;2.58;;
46116;SDS011;32591;48.102;11.772;2022-07-29T14:45:32;3.88;;;2.58;;
46116;SDS011;32591;48.102;11.772;2022-07-29T14:47:59;3.05;;;2.42;;
46116;SDS011;32591;48.102;11.772;2022-07-29T14:50:26;4.95;;;2.70;;
46116;SDS011;32591;48.102;11.772;2022-07-29T14:52:53;4.13;;;2.20;;
46116;SDS011;32591;48.102;11.772;2022-07-29T14:55:20;3.15;;;2.20;;
46116;SDS011;32591;48.102;11.772;2022-07-29T14:57:48;3.10;;;2.33;;
46116;SDS011;32591;48.102;11.772;2022-07-29T15:00:16;3.10;;;2.47;;
46116;SDS011;32591;48.102;11.772;2022-07-29T15:02:43;3.03;;;2.20;;
46116;SDS011;32591;48.102;11.772;2022-07-29T15:05:10;2.75;;;2.13;;
46116;SDS011;32591;48.102;11.772;2022-07-29T15:07:37;4.80;;;2.35;;